Muscat Silver — V7NQ7 — position and weather

sailwx.info

Track history (hours):
 
Tides and Currents Weather Stations Pressure Air Temp Water Temp Dewpoint Dewpoint Depression Visibility Wind Speed Wind Dir Waves Ship Positions

Muscat Silver

Last reported at 2018-Mar-27 08:44 UTC. Time now 2018-Apr-22 18:15 UTC.
Position N 37°24' E 025°55'.
Warning: this ship's position is 26 days out of date.

Length 183 m; draft 10.6 m.

Type: Tanker. MMSI: 538006488.

Date/timePositionNaut miles runAvg speedWind from/ knotsBaromVisibWave heightAir tempDewpointWater temp
2018-Mar-27 08:44N 37°24' E 025°55'312.7
2018-Mar-27 08:31N 37°25' E 025°52'612.4
2018-Mar-27 08:00N 37°31' E 025°49'712.1
2018-Mar-27 07:27N 37°37' E 025°46'612.1
2018-Mar-27 06:59N 37°42' E 025°43'612.0
2018-Mar-27 06:30N 37°48' E 025°40'236 9.2
2018-Mar-26 04:51N 40°55' E 028°47'410.9
2018-Mar-26 04:27N 40°56' E 028°52'1 0.1
2018-Mar-25 12:08N 40°57' E 028°53'0 0.0
2018-Mar-25 11:04N 40°57' E 028°53'0 0.0
2018-Mar-25 08:51N 40°57' E 028°53'0 0.1
2018-Mar-25 08:27N 40°57' E 028°53'0 0.1
2018-Mar-25 07:19N 40°57' E 028°53'0 0.1
2018-Mar-25 06:50N 40°57' E 028°53'0 0.0
2018-Mar-25 06:20N 40°57' E 028°53'0 0.0
2018-Mar-25 06:00N 40°57' E 028°53'0 0.1
2018-Mar-25 05:29N 40°57' E 028°53'0 0.1
2018-Mar-25 05:00N 40°57' E 028°52'0 0.0
2018-Mar-25 04:30N 40°57' E 028°52'0 0.0
2018-Mar-25 03:58N 40°57' E 028°52'0 0.0
2018-Mar-25 03:27N 40°57' E 028°52'0 0.0
2018-Mar-25 03:00N 40°57' E 028°52'0 0.0
2018-Mar-25 02:30N 40°57' E 028°52'0 0.2
2018-Mar-25 01:58N 40°57' E 028°53'1 1.3
2018-Mar-25 01:15N 40°56' E 028°53'2 6.7
2018-Mar-25 01:00N 40°57' E 028°55'331 7.3
2018-Mar-23 03:27N 46°16' E 030°54'510.8
2018-Mar-23 02:58N 46°22' E 030°55'510.9
2018-Mar-23 02:30N 46°27' E 030°55'510.8
2018-Mar-23 02:00N 46°32' E 030°56'5 9.7
2018-Mar-23 01:30N 46°34' E 031°02'5 9.7
2018-Mar-23 01:00N 46°35' E 031°09'610.7
2018-Mar-23 00:25N 46°35' E 031°18'410.0
2018-Mar-23 00:00N 46°34' E 031°24'4 8.9
2018-Mar-22 23:30N 46°35' E 031°30'4 7.9
2018-Mar-22 22:59N 46°35' E 031°36'3 6.4
2018-Mar-22 22:29N 46°36' E 031°41'3 6.4
2018-Mar-22 22:00N 46°36' E 031°46'3 6.3
2018-Mar-22 21:30N 46°36' E 031°50'3 6.5
2018-Mar-22 21:00N 46°38' E 031°54'3 6.5
2018-Mar-22 20:30N 46°41' E 031°56'3 6.4
2018-Mar-22 20:00N 46°44' E 031°55'2 3.8
2018-Mar-22 19:30N 46°46' E 031°56'0 0.7
2018-Mar-22 19:00N 46°46' E 031°56'0 0.1
2018-Mar-22 18:30N 46°46' E 031°56'0 0.0
2018-Mar-22 17:57N 46°46' E 031°56'0 0.0
2018-Mar-22 17:30N 46°46' E 031°56'0 0.0
2018-Mar-22 17:00N 46°46' E 031°56'0 0.1
2018-Mar-22 16:30N 46°46' E 031°56'0 0.1
2018-Mar-22 16:00N 46°46' E 031°56'0 0.1
2018-Mar-22 15:30N 46°46' E 031°56'0 0.5
2018-Mar-22 15:00N 46°46' E 031°57'0 0.0
2018-Mar-22 14:30N 46°46' E 031°57'0 0.0
2018-Mar-22 14:00N 46°46' E 031°57'0 0.0
2018-Mar-22 13:30N 46°46' E 031°57'0 0.0
2018-Mar-22 13:00N 46°46' E 031°57'0 0.0
2018-Mar-22 12:27N 46°46' E 031°57'0 0.0
2018-Mar-22 12:00N 46°46' E 031°57'0 0.0
2018-Mar-22 11:30N 46°46' E 031°57'0 0.0
2018-Mar-22 11:00N 46°46' E 031°57'0 0.0
2018-Mar-22 10:30N 46°46' E 031°57'0 0.0
2018-Mar-22 09:57N 46°46' E 031°57'0 0.0
2018-Mar-22 09:30N 46°46' E 031°57'0 0.0
2018-Mar-22 09:00N 46°46' E 031°57'0 0.0
2018-Mar-22 08:30N 46°46' E 031°57'0 0.0
2018-Mar-22 08:00N 46°46' E 031°57'0 0.0
2018-Mar-22 07:30N 46°46' E 031°57'0 0.0
2018-Mar-22 07:00N 46°46' E 031°57'0 0.0
2018-Mar-22 06:27N 46°46' E 031°57'0 0.0
2018-Mar-22 06:00N 46°46' E 031°57'0 0.0
2018-Mar-22 05:30N 46°46' E 031°57'0 0.0
2018-Mar-22 05:00N 46°46' E 031°57'0 0.0
2018-Mar-22 04:30N 46°46' E 031°57'0 0.0
2018-Mar-22 04:00N 46°46' E 031°57'0 0.0
2018-Mar-22 03:30N 46°46' E 031°57'0 0.0
2018-Mar-22 03:00N 46°46' E 031°57'0 0.0
2018-Mar-22 02:30N 46°46' E 031°57'0 0.0
2018-Mar-22 02:00N 46°46' E 031°57'0 0.0
2018-Mar-22 01:24N 46°46' E 031°57'0 0.0
2018-Mar-22 01:00N 46°46' E 031°57'0 0.0
2018-Mar-22 00:30N 46°46' E 031°57'0 0.0
2018-Mar-22 00:00N 46°46' E 031°57'0 0.0
2018-Mar-21 23:30N 46°46' E 031°57'0 0.0
2018-Mar-21 22:57N 46°46' E 031°57'0 0.0
2018-Mar-21 22:30N 46°46' E 031°57'0 0.0
2018-Mar-21 22:00N 46°46' E 031°57'0 0.0
2018-Mar-21 21:30N 46°46' E 031°57'0 0.0
2018-Mar-21 21:00N 46°46' E 031°57'0 0.0
2018-Mar-21 20:30N 46°46' E 031°57'0 0.0
2018-Mar-21 20:00N 46°46' E 031°57'0 0.0
2018-Mar-21 19:30N 46°46' E 031°57'0 0.0
2018-Mar-21 19:00N 46°46' E 031°57'0 0.0
2018-Mar-21 18:30N 46°46' E 031°57'0 0.0
2018-Mar-21 17:57N 46°46' E 031°57'0 0.0
2018-Mar-21 17:30N 46°46' E 031°57'0 0.0
2018-Mar-21 16:57N 46°46' E 031°57'0 0.0
2018-Mar-21 16:30N 46°46' E 031°57'0 0.0
2018-Mar-21 15:57N 46°46' E 031°57'0 0.0
2018-Mar-21 15:30N 46°46' E 031°57'0 0.0
2018-Mar-21 14:57N 46°46' E 031°57'0 0.0
2018-Mar-21 14:30N 46°46' E 031°57'0 0.0
2018-Mar-21 14:00N 46°46' E 031°57'0 0.0
2018-Mar-21 13:30N 46°46' E 031°57'0 0.0
2018-Mar-21 13:00N 46°46' E 031°57'0 0.0
2018-Mar-21 02:00N 46°46' E 031°57'0 0.0
2018-Mar-21 01:30N 46°46' E 031°57'0 0.0
2018-Mar-21 01:00N 46°46' E 031°57'0 0.0
2018-Mar-21 00:30N 46°46' E 031°57'0 0.0
2018-Mar-21 00:00N 46°46' E 031°57'0 0.0
2018-Mar-20 23:30N 46°46' E 031°57'0 0.0
2018-Mar-20 22:57N 46°46' E 031°57'0 0.0
2018-Mar-20 22:30N 46°46' E 031°57'0 0.0
2018-Mar-20 22:00N 46°46' E 031°57'0 0.0
2018-Mar-20 21:30N 46°46' E 031°57'0 0.0
2018-Mar-20 21:00N 46°46' E 031°57'0 0.0
2018-Mar-20 20:30N 46°46' E 031°57'0 0.0
2018-Mar-20 20:00N 46°46' E 031°57'0 0.0
2018-Mar-20 19:30N 46°46' E 031°57'0 0.0
2018-Mar-20 19:00N 46°46' E 031°57'0 0.0
2018-Mar-20 18:30N 46°46' E 031°57'0 0.0
2018-Mar-20 18:00N 46°46' E 031°57'0 0.0
2018-Mar-20 17:30N 46°46' E 031°57'0 0.0
2018-Mar-20 17:00N 46°46' E 031°57'0 0.0
2018-Mar-20 16:30N 46°46' E 031°57'0 0.0
2018-Mar-20 16:00N 46°46' E 031°57'0 0.0
2018-Mar-20 15:27N 46°46' E 031°57'0 0.0
2018-Mar-20 14:57N 46°46' E 031°57'0 0.0
2018-Mar-20 14:30N 46°46' E 031°57'0 0.0
2018-Mar-20 14:00N 46°46' E 031°57'0 0.0
2018-Mar-20 13:27N 46°46' E 031°57'0 0.0
2018-Mar-20 12:57N 46°46' E 031°57'0 0.0
2018-Mar-20 12:27N 46°46' E 031°57'0 0.0
2018-Mar-20 12:00N 46°46' E 031°57'0 0.0
2018-Mar-20 11:27N 46°46' E 031°57'0 0.0
2018-Mar-20 11:00N 46°46' E 031°57'0 0.0
2018-Mar-20 10:30N 46°46' E 031°57'0 0.0
2018-Mar-20 10:00N 46°46' E 031°57'0 0.0
2018-Mar-20 09:30N 46°46' E 031°57'0 0.0
2018-Mar-20 09:00N 46°46' E 031°57'0 0.0
2018-Mar-20 08:30N 46°46' E 031°57'0 0.0
2018-Mar-20 08:00N 46°46' E 031°57'0 0.0
2018-Mar-20 07:27N 46°46' E 031°57'0 0.0
2018-Mar-20 07:00N 46°46' E 031°57'0 0.0
2018-Mar-20 06:30N 46°46' E 031°57'0 0.0
2018-Mar-20 06:00N 46°46' E 031°57'0 0.0
2018-Mar-20 05:24N 46°46' E 031°57'0 0.0
2018-Mar-20 05:00N 46°46' E 031°57'0 0.0
2018-Mar-20 04:30N 46°46' E 031°57'0 0.0
2018-Mar-20 04:00N 46°46' E 031°57'0 0.0
2018-Mar-20 03:30N 46°46' E 031°57'0 0.0
2018-Mar-20 03:00N 46°46' E 031°57'0 0.0
2018-Mar-20 02:30N 46°46' E 031°57'0 0.0
2018-Mar-20 02:00N 46°46' E 031°57'0 0.0
2018-Mar-20 01:30N 46°46' E 031°57'0 0.0
2018-Mar-20 01:00N 46°46' E 031°57'0 0.0
2018-Mar-20 00:30N 46°46' E 031°57'0 0.0
2018-Mar-20 00:00N 46°46' E 031°57'0 0.0
2018-Mar-19 23:30N 46°46' E 031°57'0 0.0
2018-Mar-19 23:00N 46°46' E 031°57'0 0.0
2018-Mar-19 22:30N 46°46' E 031°57'0 0.0
2018-Mar-19 21:57N 46°46' E 031°57'0 0.0
2018-Mar-19 21:30N 46°46' E 031°57'0 0.0
2018-Mar-19 21:00N 46°46' E 031°57'0 0.0
2018-Mar-19 20:27N 46°46' E 031°57'0 0.0
2018-Mar-19 19:51N 46°46' E 031°57'0 0.0
2018-Mar-19 19:27N 46°46' E 031°57'0 0.0
2018-Mar-19 19:00N 46°46' E 031°57'0 0.0
2018-Mar-19 18:30N 46°46' E 031°57'0 0.0
2018-Mar-19 17:51N 46°46' E 031°57'0 0.0
2018-Mar-19 17:30N 46°46' E 031°57'0 0.0
2018-Mar-19 17:00N 46°46' E 031°57'0 0.0
2018-Mar-19 16:30N 46°46' E 031°57'0 0.0
2018-Mar-19 15:57N 46°46' E 031°57'0 0.0
2018-Mar-19 15:30N 46°46' E 031°57'0 0.0
2018-Mar-19 15:00N 46°46' E 031°57'0 0.0
2018-Mar-19 14:27N 46°46' E 031°57'0 0.0
2018-Mar-19 14:00N 46°46' E 031°57'0 0.0
2018-Mar-19 13:30N 46°46' E 031°57'0 0.0
2018-Mar-19 12:54N 46°46' E 031°57'0 0.0
2018-Mar-19 12:27N 46°46' E 031°57'0 0.0
2018-Mar-19 12:00N 46°46' E 031°57'0 0.0
2018-Mar-19 11:30N 46°46' E 031°57'0 0.0
2018-Mar-19 11:00N 46°46' E 031°57'0 0.0
2018-Mar-19 10:27N 46°46' E 031°57'0 0.0
2018-Mar-19 10:00N 46°46' E 031°57'0 0.0
2018-Mar-19 09:30N 46°46' E 031°57'0 0.0
2018-Mar-19 09:00N 46°46' E 031°57'0 0.0
2018-Mar-19 08:30N 46°46' E 031°57'0 0.0
2018-Mar-19 08:00N 46°46' E 031°57'0 0.0
2018-Mar-19 07:24N 46°46' E 031°57'0 0.0
2018-Mar-19 07:00N 46°46' E 031°57'0 0.0
2018-Mar-19 06:30N 46°46' E 031°57'0 0.0
2018-Mar-19 06:00N 46°46' E 031°57'0 0.0
2018-Mar-19 05:27N 46°46' E 031°57'0 0.0
2018-Mar-19 05:00N 46°46' E 031°57'0 0.0
2018-Mar-19 04:30N 46°46' E 031°57'0 0.0
2018-Mar-19 04:00N 46°46' E 031°57'0 0.0
2018-Mar-19 03:27N 46°46' E 031°57'0 0.0
2018-Mar-19 02:57N 46°46' E 031°57'0 0.0
2018-Mar-19 02:30N 46°46' E 031°57'0 0.0
2018-Mar-19 02:00N 46°46' E 031°57'0 0.0
2018-Mar-19 01:30N 46°46' E 031°57'0 0.0
2018-Mar-19 01:00N 46°46' E 031°57'0 0.0
2018-Mar-19 00:30N 46°46' E 031°57'0 0.0
2018-Mar-19 00:00N 46°46' E 031°57'0 0.0
2018-Mar-18 23:27N 46°46' E 031°57'0 0.0
2018-Mar-18 23:00N 46°46' E 031°57'0 0.0
2018-Mar-18 22:24N 46°46' E 031°57'0 0.0
2018-Mar-18 22:00N 46°46' E 031°57'0 0.0
2018-Mar-18 21:27N 46°46' E 031°57'0 0.0
2018-Mar-18 20:57N 46°46' E 031°57'0 0.0
2018-Mar-18 20:30N 46°46' E 031°57'0 0.0
2018-Mar-18 20:00N 46°46' E 031°57'0 0.0
2018-Mar-18 19:30N 46°46' E 031°57'0 0.0
2018-Mar-18 18:57N 46°46' E 031°57'0 0.0
2018-Mar-18 18:30N 46°46' E 031°57'0 0.0
2018-Mar-18 18:00N 46°46' E 031°57'0 0.0
2018-Mar-18 17:30N 46°46' E 031°57'0 0.0
2018-Mar-18 17:00N 46°46' E 031°57'0 0.0
2018-Mar-18 16:30N 46°46' E 031°57'0 0.0
2018-Mar-18 16:00N 46°46' E 031°57'0 0.0
2018-Mar-18 15:30N 46°46' E 031°57'0 0.0
2018-Mar-18 15:00N 46°46' E 031°57'0 0.0
2018-Mar-18 14:30N 46°46' E 031°57'0 0.0
2018-Mar-18 14:00N 46°46' E 031°57'0 0.0
2018-Mar-18 13:30N 46°46' E 031°57'0 0.0
2018-Mar-18 12:54N 46°46' E 031°57'0 0.0
2018-Mar-18 12:21N 46°46' E 031°57'0 0.0
2018-Mar-18 11:48N 46°46' E 031°57'0 0.0
2018-Mar-18 11:27N 46°46' E 031°57'0 0.0
2018-Mar-18 10:57N 46°46' E 031°57'0 0.0
2018-Mar-18 10:21N 46°46' E 031°57'0 0.0
2018-Mar-18 10:00N 46°46' E 031°57'0 0.0
2018-Mar-18 09:30N 46°46' E 031°57'0 0.0
2018-Mar-18 09:00N 46°46' E 031°57'0 0.0
2018-Mar-18 08:30N 46°46' E 031°57'0 0.0
2018-Mar-18 08:00N 46°46' E 031°57'0 0.0
2018-Mar-18 07:30N 46°46' E 031°57'0 0.0
2018-Mar-18 07:00N 46°46' E 031°57'0 0.0
2018-Mar-18 06:27N 46°46' E 031°57'0 0.0
2018-Mar-18 05:57N 46°46' E 031°57'0 0.0
2018-Mar-18 05:27N 46°46' E 031°57'0 0.0
2018-Mar-18 05:00N 46°46' E 031°57'0 0.0
2018-Mar-18 04:18N 46°46' E 031°57'0 0.0
2018-Mar-18 04:00N 46°46' E 031°57'0 0.0
2018-Mar-18 03:30N 46°46' E 031°57'0 0.0
2018-Mar-18 03:00N 46°46' E 031°57'0 0.0
2018-Mar-18 02:30N 46°46' E 031°57'0 0.0
2018-Mar-18 01:03N 46°46' E 031°57'0 0.0
2018-Mar-18 00:54N 46°46' E 031°57'0 0.0
2018-Mar-18 00:30N 46°46' E 031°57'0 0.0
2018-Mar-18 00:00N 46°46' E 031°57'0 0.0
2018-Mar-17 23:30N 46°46' E 031°57'0 0.5
2018-Mar-17 23:00N 46°46' E 031°56'2 3.3
2018-Mar-17 22:30N 46°45' E 031°55'0 0.3
2018-Mar-17 22:00N 46°45' E 031°55'0 0.0
2018-Mar-17 21:30N 46°45' E 031°55'0 0.0
2018-Mar-17 21:00N 46°45' E 031°55'0 0.2
2018-Mar-17 20:30N 46°45' E 031°55'2 3.3
2018-Mar-17 20:00N 46°43' E 031°56'5 9.7
2018-Mar-17 19:30N 46°39' E 031°55'510.2
2018-Mar-17 19:00N 46°36' E 031°49'510.4
2018-Mar-17 18:29N 46°36' E 031°41'5 9.8
2018-Mar-17 18:00N 46°35' E 031°34'4 8.2
2018-Mar-17 17:29N 46°35' E 031°28'4 7.2
2018-Mar-17 16:54N 46°34' E 031°22'4 8.1
2018-Mar-17 16:23N 46°35' E 031°16'512.1
2018-Mar-17 16:00N 46°35' E 031°09'611.3
2018-Mar-17 15:28N 46°33' E 031°01'3 7.0
2018-Mar-17 15:00N 46°31' E 030°57'5 9.1
2018-Mar-17 14:30N 46°27' E 030°57'4 7.5
2018-Mar-17 13:58N 46°23' E 030°57'3 7.5
2018-Mar-17 13:30N 46°20' E 030°57'510.5
2018-Mar-17 12:59N 46°15' E 031°00'  
Track history (hours):
 
Tides and Currents Weather Stations Pressure Air Temp Water Temp Dewpoint Dewpoint Depression Visibility Wind Speed Wind Dir Waves Ship Positions

Muscat Silver

Last reported at 2018-Mar-27 08:44 UTC. Time now 2018-Apr-22 18:15 UTC.
Position N 37°24' E 025°55'.
Warning: this ship's position is 26 days out of date.

Length 183 m; draft 10.6 m.

Type: Tanker. MMSI: 538006488.

Date/timePositionNaut miles runAvg speedWind from/ knotsBaromVisibWave heightAir tempDewpointWater temp
2018-Mar-27 08:44N 37°24' E 025°55'312.7
2018-Mar-27 08:31N 37°25' E 025°52'612.4
2018-Mar-27 08:00N 37°31' E 025°49'712.1
2018-Mar-27 07:27N 37°37' E 025°46'612.1
2018-Mar-27 06:59N 37°42' E 025°43'612.0
2018-Mar-27 06:30N 37°48' E 025°40'236 9.2
2018-Mar-26 04:51N 40°55' E 028°47'410.9
2018-Mar-26 04:27N 40°56' E 028°52'1 0.1
2018-Mar-25 12:08N 40°57' E 028°53'0 0.0
2018-Mar-25 11:04N 40°57' E 028°53'0 0.0
2018-Mar-25 08:51N 40°57' E 028°53'0 0.1
2018-Mar-25 08:27N 40°57' E 028°53'0 0.1
2018-Mar-25 07:19N 40°57' E 028°53'0 0.1
2018-Mar-25 06:50N 40°57' E 028°53'0 0.0
2018-Mar-25 06:20N 40°57' E 028°53'0 0.0
2018-Mar-25 06:00N 40°57' E 028°53'0 0.1
2018-Mar-25 05:29N 40°57' E 028°53'0 0.1
2018-Mar-25 05:00N 40°57' E 028°52'0 0.0
2018-Mar-25 04:30N 40°57' E 028°52'0 0.0
2018-Mar-25 03:58N 40°57' E 028°52'0 0.0
2018-Mar-25 03:27N 40°57' E 028°52'0 0.0
2018-Mar-25 03:00N 40°57' E 028°52'0 0.0
2018-Mar-25 02:30N 40°57' E 028°52'0 0.2
2018-Mar-25 01:58N 40°57' E 028°53'1 1.3
2018-Mar-25 01:15N 40°56' E 028°53'2 6.7
2018-Mar-25 01:00N 40°57' E 028°55'331 7.3
2018-Mar-23 03:27N 46°16' E 030°54'510.8
2018-Mar-23 02:58N 46°22' E 030°55'510.9
2018-Mar-23 02:30N 46°27' E 030°55'510.8
2018-Mar-23 02:00N 46°32' E 030°56'5 9.7
2018-Mar-23 01:30N 46°34' E 031°02'5 9.7
2018-Mar-23 01:00N 46°35' E 031°09'610.7
2018-Mar-23 00:25N 46°35' E 031°18'410.0
2018-Mar-23 00:00N 46°34' E 031°24'4 8.9
2018-Mar-22 23:30N 46°35' E 031°30'4 7.9
2018-Mar-22 22:59N 46°35' E 031°36'3 6.4
2018-Mar-22 22:29N 46°36' E 031°41'3 6.4
2018-Mar-22 22:00N 46°36' E 031°46'3 6.3
2018-Mar-22 21:30N 46°36' E 031°50'3 6.5
2018-Mar-22 21:00N 46°38' E 031°54'3 6.5
2018-Mar-22 20:30N 46°41' E 031°56'3 6.4
2018-Mar-22 20:00N 46°44' E 031°55'2 3.8
2018-Mar-22 19:30N 46°46' E 031°56'0 0.7
2018-Mar-22 19:00N 46°46' E 031°56'0 0.1
2018-Mar-22 18:30N 46°46' E 031°56'0 0.0
2018-Mar-22 17:57N 46°46' E 031°56'0 0.0
2018-Mar-22 17:30N 46°46' E 031°56'0 0.0
2018-Mar-22 17:00N 46°46' E 031°56'0 0.1
2018-Mar-22 16:30N 46°46' E 031°56'0 0.1
2018-Mar-22 16:00N 46°46' E 031°56'0 0.1
2018-Mar-22 15:30N 46°46' E 031°56'0 0.5
2018-Mar-22 15:00N 46°46' E 031°57'0 0.0
2018-Mar-22 14:30N 46°46' E 031°57'0 0.0
2018-Mar-22 14:00N 46°46' E 031°57'0 0.0
2018-Mar-22 13:30N 46°46' E 031°57'0 0.0
2018-Mar-22 13:00N 46°46' E 031°57'0 0.0
2018-Mar-22 12:27N 46°46' E 031°57'0 0.0
2018-Mar-22 12:00N 46°46' E 031°57'0 0.0
2018-Mar-22 11:30N 46°46' E 031°57'0 0.0
2018-Mar-22 11:00N 46°46' E 031°57'0 0.0
2018-Mar-22 10:30N 46°46' E 031°57'0 0.0
2018-Mar-22 09:57N 46°46' E 031°57'0 0.0
2018-Mar-22 09:30N 46°46' E 031°57'0 0.0
2018-Mar-22 09:00N 46°46' E 031°57'0 0.0
2018-Mar-22 08:30N 46°46' E 031°57'0 0.0
2018-Mar-22 08:00N 46°46' E 031°57'0 0.0
2018-Mar-22 07:30N 46°46' E 031°57'0 0.0
2018-Mar-22 07:00N 46°46' E 031°57'0 0.0
2018-Mar-22 06:27N 46°46' E 031°57'0 0.0
2018-Mar-22 06:00N 46°46' E 031°57'0 0.0
2018-Mar-22 05:30N 46°46' E 031°57'0 0.0
2018-Mar-22 05:00N 46°46' E 031°57'0 0.0
2018-Mar-22 04:30N 46°46' E 031°57'0 0.0
2018-Mar-22 04:00N 46°46' E 031°57'0 0.0
2018-Mar-22 03:30N 46°46' E 031°57'0 0.0
2018-Mar-22 03:00N 46°46' E 031°57'0 0.0
2018-Mar-22 02:30N 46°46' E 031°57'0 0.0
2018-Mar-22 02:00N 46°46' E 031°57'0 0.0
2018-Mar-22 01:24N 46°46' E 031°57'0 0.0
2018-Mar-22 01:00N 46°46' E 031°57'0 0.0
2018-Mar-22 00:30N 46°46' E 031°57'0 0.0
2018-Mar-22 00:00N 46°46' E 031°57'0 0.0
2018-Mar-21 23:30N 46°46' E 031°57'0 0.0
2018-Mar-21 22:57N 46°46' E 031°57'0 0.0
2018-Mar-21 22:30N 46°46' E 031°57'0 0.0
2018-Mar-21 22:00N 46°46' E 031°57'0 0.0
2018-Mar-21 21:30N 46°46' E 031°57'0 0.0
2018-Mar-21 21:00N 46°46' E 031°57'0 0.0
2018-Mar-21 20:30N 46°46' E 031°57'0 0.0
2018-Mar-21 20:00N 46°46' E 031°57'0 0.0
2018-Mar-21 19:30N 46°46' E 031°57'0 0.0
2018-Mar-21 19:00N 46°46' E 031°57'0 0.0
2018-Mar-21 18:30N 46°46' E 031°57'0 0.0
2018-Mar-21 17:57N 46°46' E 031°57'0 0.0
2018-Mar-21 17:30N 46°46' E 031°57'0 0.0
2018-Mar-21 16:57N 46°46' E 031°57'0 0.0
2018-Mar-21 16:30N 46°46' E 031°57'0 0.0
2018-Mar-21 15:57N 46°46' E 031°57'0 0.0
2018-Mar-21 15:30N 46°46' E 031°57'0 0.0
2018-Mar-21 14:57N 46°46' E 031°57'0 0.0
2018-Mar-21 14:30N 46°46' E 031°57'0 0.0
2018-Mar-21 14:00N 46°46' E 031°57'0 0.0
2018-Mar-21 13:30N 46°46' E 031°57'0 0.0
2018-Mar-21 13:00N 46°46' E 031°57'0 0.0
2018-Mar-21 02:00N 46°46' E 031°57'0 0.0
2018-Mar-21 01:30N 46°46' E 031°57'0 0.0
2018-Mar-21 01:00N 46°46' E 031°57'0 0.0
2018-Mar-21 00:30N 46°46' E 031°57'0 0.0
2018-Mar-21 00:00N 46°46' E 031°57'0 0.0
2018-Mar-20 23:30N 46°46' E 031°57'0 0.0
2018-Mar-20 22:57N 46°46' E 031°57'0 0.0
2018-Mar-20 22:30N 46°46' E 031°57'0 0.0
2018-Mar-20 22:00N 46°46' E 031°57'0 0.0
2018-Mar-20 21:30N 46°46' E 031°57'0 0.0
2018-Mar-20 21:00N 46°46' E 031°57'0 0.0
2018-Mar-20 20:30N 46°46' E 031°57'0 0.0
2018-Mar-20 20:00N 46°46' E 031°57'0 0.0
2018-Mar-20 19:30N 46°46' E 031°57'0 0.0
2018-Mar-20 19:00N 46°46' E 031°57'0 0.0
2018-Mar-20 18:30N 46°46' E 031°57'0 0.0
2018-Mar-20 18:00N 46°46' E 031°57'0 0.0
2018-Mar-20 17:30N 46°46' E 031°57'0 0.0
2018-Mar-20 17:00N 46°46' E 031°57'0 0.0
2018-Mar-20 16:30N 46°46' E 031°57'0 0.0
2018-Mar-20 16:00N 46°46' E 031°57'0 0.0
2018-Mar-20 15:27N 46°46' E 031°57'0 0.0
2018-Mar-20 14:57N 46°46' E 031°57'0 0.0
2018-Mar-20 14:30N 46°46' E 031°57'0 0.0
2018-Mar-20 14:00N 46°46' E 031°57'0 0.0
2018-Mar-20 13:27N 46°46' E 031°57'0 0.0
2018-Mar-20 12:57N 46°46' E 031°57'0 0.0
2018-Mar-20 12:27N 46°46' E 031°57'0 0.0
2018-Mar-20 12:00N 46°46' E 031°57'0 0.0
2018-Mar-20 11:27N 46°46' E 031°57'0 0.0
2018-Mar-20 11:00N 46°46' E 031°57'0 0.0
2018-Mar-20 10:30N 46°46' E 031°57'0 0.0
2018-Mar-20 10:00N 46°46' E 031°57'0 0.0
2018-Mar-20 09:30N 46°46' E 031°57'0 0.0
2018-Mar-20 09:00N 46°46' E 031°57'0 0.0
2018-Mar-20 08:30N 46°46' E 031°57'0 0.0
2018-Mar-20 08:00N 46°46' E 031°57'0 0.0
2018-Mar-20 07:27N 46°46' E 031°57'0 0.0
2018-Mar-20 07:00N 46°46' E 031°57'0 0.0
2018-Mar-20 06:30N 46°46' E 031°57'0 0.0
2018-Mar-20 06:00N 46°46' E 031°57'0 0.0
2018-Mar-20 05:24N 46°46' E 031°57'0 0.0
2018-Mar-20 05:00N 46°46' E 031°57'0 0.0
2018-Mar-20 04:30N 46°46' E 031°57'0 0.0
2018-Mar-20 04:00N 46°46' E 031°57'0 0.0
2018-Mar-20 03:30N 46°46' E 031°57'0 0.0
2018-Mar-20 03:00N 46°46' E 031°57'0 0.0
2018-Mar-20 02:30N 46°46' E 031°57'0 0.0
2018-Mar-20 02:00N 46°46' E 031°57'0 0.0
2018-Mar-20 01:30N 46°46' E 031°57'0 0.0
2018-Mar-20 01:00N 46°46' E 031°57'0 0.0
2018-Mar-20 00:30N 46°46' E 031°57'0 0.0
2018-Mar-20 00:00N 46°46' E 031°57'0 0.0
2018-Mar-19 23:30N 46°46' E 031°57'0 0.0
2018-Mar-19 23:00N 46°46' E 031°57'0 0.0
2018-Mar-19 22:30N 46°46' E 031°57'0 0.0
2018-Mar-19 21:57N 46°46' E 031°57'0 0.0
2018-Mar-19 21:30N 46°46' E 031°57'0 0.0
2018-Mar-19 21:00N 46°46' E 031°57'0 0.0
2018-Mar-19 20:27N 46°46' E 031°57'0 0.0
2018-Mar-19 19:51N 46°46' E 031°57'0 0.0
2018-Mar-19 19:27N 46°46' E 031°57'0 0.0
2018-Mar-19 19:00N 46°46' E 031°57'0 0.0
2018-Mar-19 18:30N 46°46' E 031°57'0 0.0
2018-Mar-19 17:51N 46°46' E 031°57'0 0.0
2018-Mar-19 17:30N 46°46' E 031°57'0 0.0
2018-Mar-19 17:00N 46°46' E 031°57'0 0.0
2018-Mar-19 16:30N 46°46' E 031°57'0 0.0
2018-Mar-19 15:57N 46°46' E 031°57'0 0.0
2018-Mar-19 15:30N 46°46' E 031°57'0 0.0
2018-Mar-19 15:00N 46°46' E 031°57'0 0.0
2018-Mar-19 14:27N 46°46' E 031°57'0 0.0
2018-Mar-19 14:00N 46°46' E 031°57'0 0.0
2018-Mar-19 13:30N 46°46' E 031°57'0 0.0
2018-Mar-19 12:54N 46°46' E 031°57'0 0.0
2018-Mar-19 12:27N 46°46' E 031°57'0 0.0
2018-Mar-19 12:00N 46°46' E 031°57'0 0.0
2018-Mar-19 11:30N 46°46' E 031°57'0 0.0
2018-Mar-19 11:00N 46°46' E 031°57'0 0.0
2018-Mar-19 10:27N 46°46' E 031°57'0 0.0
2018-Mar-19 10:00N 46°46' E 031°57'0 0.0
2018-Mar-19 09:30N 46°46' E 031°57'0 0.0
2018-Mar-19 09:00N 46°46' E 031°57'0 0.0
2018-Mar-19 08:30N 46°46' E 031°57'0 0.0
2018-Mar-19 08:00N 46°46' E 031°57'0 0.0
2018-Mar-19 07:24N 46°46' E 031°57'0 0.0
2018-Mar-19 07:00N 46°46' E 031°57'0 0.0
2018-Mar-19 06:30N 46°46' E 031°57'0 0.0
2018-Mar-19 06:00N 46°46' E 031°57'0 0.0
2018-Mar-19 05:27N 46°46' E 031°57'0 0.0
2018-Mar-19 05:00N 46°46' E 031°57'0 0.0
2018-Mar-19 04:30N 46°46' E 031°57'0 0.0
2018-Mar-19 04:00N 46°46' E 031°57'0 0.0
2018-Mar-19 03:27N 46°46' E 031°57'0 0.0
2018-Mar-19 02:57N 46°46' E 031°57'0 0.0
2018-Mar-19 02:30N 46°46' E 031°57'0 0.0
2018-Mar-19 02:00N 46°46' E 031°57'0 0.0
2018-Mar-19 01:30N 46°46' E 031°57'0 0.0
2018-Mar-19 01:00N 46°46' E 031°57'0 0.0
2018-Mar-19 00:30N 46°46' E 031°57'0 0.0
2018-Mar-19 00:00N 46°46' E 031°57'0 0.0
2018-Mar-18 23:27N 46°46' E 031°57'0 0.0
2018-Mar-18 23:00N 46°46' E 031°57'0 0.0
2018-Mar-18 22:24N 46°46' E 031°57'0 0.0
2018-Mar-18 22:00N 46°46' E 031°57'0 0.0
2018-Mar-18 21:27N 46°46' E 031°57'0 0.0
2018-Mar-18 20:57N 46°46' E 031°57'0 0.0
2018-Mar-18 20:30N 46°46' E 031°57'0 0.0
2018-Mar-18 20:00N 46°46' E 031°57'0 0.0
2018-Mar-18 19:30N 46°46' E 031°57'0 0.0
2018-Mar-18 18:57N 46°46' E 031°57'0 0.0
2018-Mar-18 18:30N 46°46' E 031°57'0 0.0
2018-Mar-18 18:00N 46°46' E 031°57'0 0.0
2018-Mar-18 17:30N 46°46' E 031°57'0 0.0
2018-Mar-18 17:00N 46°46' E 031°57'0 0.0
2018-Mar-18 16:30N 46°46' E 031°57'0 0.0
2018-Mar-18 16:00N 46°46' E 031°57'0 0.0
2018-Mar-18 15:30N 46°46' E 031°57'0 0.0
2018-Mar-18 15:00N 46°46' E 031°57'0 0.0
2018-Mar-18 14:30N 46°46' E 031°57'0 0.0
2018-Mar-18 14:00N 46°46' E 031°57'0 0.0
2018-Mar-18 13:30N 46°46' E 031°57'0 0.0
2018-Mar-18 12:54N 46°46' E 031°57'0 0.0
2018-Mar-18 12:21N 46°46' E 031°57'0 0.0
2018-Mar-18 11:48N 46°46' E 031°57'0 0.0
2018-Mar-18 11:27N 46°46' E 031°57'0 0.0
2018-Mar-18 10:57N 46°46' E 031°57'0 0.0
2018-Mar-18 10:21N 46°46' E 031°57'0 0.0
2018-Mar-18 10:00N 46°46' E 031°57'0 0.0
2018-Mar-18 09:30N 46°46' E 031°57'0 0.0
2018-Mar-18 09:00N 46°46' E 031°57'0 0.0
2018-Mar-18 08:30N 46°46' E 031°57'0 0.0
2018-Mar-18 08:00N 46°46' E 031°57'0 0.0
2018-Mar-18 07:30N 46°46' E 031°57'0 0.0
2018-Mar-18 07:00N 46°46' E 031°57'0 0.0
2018-Mar-18 06:27N 46°46' E 031°57'0 0.0
2018-Mar-18 05:57N 46°46' E 031°57'0 0.0
2018-Mar-18 05:27N 46°46' E 031°57'0 0.0
2018-Mar-18 05:00N 46°46' E 031°57'0 0.0
2018-Mar-18 04:18N 46°46' E 031°57'0 0.0
2018-Mar-18 04:00N 46°46' E 031°57'0 0.0
2018-Mar-18 03:30N 46°46' E 031°57'0 0.0
2018-Mar-18 03:00N 46°46' E 031°57'0 0.0
2018-Mar-18 02:30N 46°46' E 031°57'0 0.0
2018-Mar-18 01:03N 46°46' E 031°57'0 0.0
2018-Mar-18 00:54N 46°46' E 031°57'0 0.0
2018-Mar-18 00:30N 46°46' E 031°57'0 0.0
2018-Mar-18 00:00N 46°46' E 031°57'0 0.0
2018-Mar-17 23:30N 46°46' E 031°57'0 0.5
2018-Mar-17 23:00N 46°46' E 031°56'2 3.3
2018-Mar-17 22:30N 46°45' E 031°55'0 0.3
2018-Mar-17 22:00N 46°45' E 031°55'0 0.0
2018-Mar-17 21:30N 46°45' E 031°55'0 0.0
2018-Mar-17 21:00N 46°45' E 031°55'0 0.2
2018-Mar-17 20:30N 46°45' E 031°55'2 3.3
2018-Mar-17 20:00N 46°43' E 031°56'5 9.7
2018-Mar-17 19:30N 46°39' E 031°55'510.2
2018-Mar-17 19:00N 46°36' E 031°49'510.4
2018-Mar-17 18:29N 46°36' E 031°41'5 9.8
2018-Mar-17 18:00N 46°35' E 031°34'4 8.2
2018-Mar-17 17:29N 46°35' E 031°28'4 7.2
2018-Mar-17 16:54N 46°34' E 031°22'4 8.1
2018-Mar-17 16:23N 46°35' E 031°16'512.1
2018-Mar-17 16:00N 46°35' E 031°09'611.3
2018-Mar-17 15:28N 46°33' E 031°01'3 7.0
2018-Mar-17 15:00N 46°31' E 030°57'5 9.1
2018-Mar-17 14:30N 46°27' E 030°57'4 7.5
2018-Mar-17 13:58N 46°23' E 030°57'3 7.5
2018-Mar-17 13:30N 46°20' E 030°57'510.5
2018-Mar-17 12:59N 46°15' E 031°00'  

Dump ship's entire track history